Time;durP1;ratioP1;P1;durP2;ratioP2;P2;SDS_P1;SDS_P2;PMS_P1;PMS_P2;Temp;Humidity;BMP_temperature;BMP_pressure;BME280_temperature;BME280_humidity;BME280_pressure;Samples;Min_cycle;Max_cycle;Signal;HPM_P1;HPM_P2
2021/08/03 00:02:06;;;;;;;1.37;1.23;;;;;;;15.28;83.23;96675.00;5033581;28;20186;-65
2021/08/03 00:04:42;;;;;;;2.07;1.40;;;;;;;15.40;82.50;96682.72;5032689;28;20179;-65
2021/08/03 00:07:10;;;;;;;2.30;1.60;;;;;;;15.44;82.52;96678.50;5032184;28;20186;-65
2021/08/03 00:09:38;;;;;;;3.20;1.50;;;;;;;15.35;82.82;96678.22;5032401;28;20520;-65
2021/08/03 00:12:04;;;;;;;1.57;1.20;;;;;;;15.38;82.65;96680.31;5033475;28;20190;-65
2021/08/03 00:14:30;;;;;;;1.93;1.40;;;;;;;15.26;83.78;96671.84;5032638;28;20229;-69
2021/08/03 00:16:57;;;;;;;1.63;1.53;;;;;;;15.25;84.23;96674.75;5015921;28;20274;-65
2021/08/03 00:19:26;;;;;;;1.77;1.67;;;;;;;15.32;83.76;96672.66;5032698;28;20194;-65
2021/08/03 00:21:52;;;;;;;2.27;1.77;;;;;;;15.46;83.29;96675.59;5032715;28;20210;-65
2021/08/03 00:24:22;;;;;;;3.20;1.40;;;;;;;15.63;81.93;96673.56;5032888;28;20713;-66
2021/08/03 00:26:48;;;;;;;1.60;1.50;;;;;;;15.53;82.34;96668.25;5032688;28;20348;-65
2021/08/03 00:29:14;;;;;;;1.87;1.50;;;;;;;15.35;82.96;96666.84;5032959;28;20671;-65
2021/08/03 00:31:40;;;;;;;1.57;1.47;;;;;;;15.24;83.48;96666.03;5032598;28;20233;-65
2021/08/03 00:34:05;;;;;;;1.20;1.10;;;;;;;15.58;81.72;96663.00;5033130;28;20702;-65
2021/08/03 00:36:31;;;;;;;1.70;1.60;;;;;;;15.62;81.35;96659.56;5030678;28;20179;-66
2021/08/03 00:38:57;;;;;;;1.20;1.20;;;;;;;15.43;81.66;96657.66;5032470;28;20230;-66
2021/08/03 00:41:28;;;;;;;2.40;1.17;;;;;;;15.57;80.51;96658.75;5033055;28;20191;-65
2021/08/03 00:43:54;;;;;;;1.30;1.20;;;;;;;15.64;79.79;96662.75;5032443;28;20183;-66
2021/08/03 00:46:19;;;;;;;1.20;1.20;;;;;;;15.66;79.41;96655.31;5030658;28;20201;-66
2021/08/03 00:48:45;;;;;;;1.00;1.00;;;;;;;15.71;78.81;96654.56;5032208;28;20195;-66
2021/08/03 00:51:10;;;;;;;1.83;1.33;;;;;;;15.75;78.53;96647.69;5031936;28;20632;-66
2021/08/03 00:53:36;;;;;;;1.00;1.00;;;;;;;15.73;78.85;96660.38;5031828;28;20281;-65
2021/08/03 00:56:01;;;;;;;2.50;1.17;;;;;;;15.70;79.34;96645.84;5032479;28;20244;-65
2021/08/03 00:58:27;;;;;;;1.33;1.23;;;;;;;15.73;79.05;96641.88;5032436;28;20209;-71
2021/08/03 01:00:57;;;;;;;1.27;1.00;;;;;;;15.74;79.08;96643.47;5032433;28;20547;-65
2021/08/03 01:03:23;;;;;;;3.93;1.00;;;;;;;15.65;79.66;96653.75;5032606;28;20213;-65
2021/08/03 01:06:27;;;;;;;1.23;1.20;;;;;;;15.72;79.84;96643.72;5031036;28;20204;-65
2021/08/03 01:09:06;;;;;;;1.20;1.20;;;;;;;15.78;79.42;96647.16;5023173;28;20221;-65
2021/08/03 01:11:53;;;;;;;1.40;1.30;;;;;;;15.86;78.45;96648.50;5031527;28;20191;-66
2021/08/03 01:14:57;;;;;;;3.17;1.10;;;;;;;15.97;77.96;96658.03;5031945;28;20175;-65
2021/08/03 01:18:01;;;;;;;4.93;1.30;;;;;;;15.84;79.42;96655.88;5024525;28;20198;-65
2021/08/03 01:20:33;;;;;;;1.40;1.30;;;;;;;15.82;79.56;96656.16;5020717;28;20273;-65
2021/08/03 01:23:31;;;;;;;2.40;1.67;;;;;;;15.97;78.93;96658.81;5032068;28;20171;-65
2021/08/03 01:26:18;;;;;;;2.03;1.50;;;;;;;15.68;80.88;96666.44;5023792;28;20173;-65
2021/08/03 01:28:49;;;;;;;2.23;1.77;;;;;;;15.60;81.69;96660.88;5031023;28;20663;-65
2021/08/03 01:31:31;;;;;;;3.10;1.70;;;;;;;15.59;81.75;96668.03;5032092;28;20190;-65
2021/08/03 01:34:08;;;;;;;2.07;1.97;;;;;;;15.57;81.96;96664.84;5031860;28;20178;-65
2021/08/03 01:36:35;;;;;;;3.77;2.20;;;;;;;15.48;82.67;96658.44;5030702;28;20186;-65
2021/08/03 01:39:02;;;;;;;2.13;1.93;;;;;;;15.38;83.28;96658.41;5031387;28;20238;-66
2021/08/03 01:41:28;;;;;;;2.70;2.43;;;;;;;15.37;83.64;96662.13;5031515;28;20202;-71
2021/08/03 01:43:56;;;;;;;3.20;2.33;;;;;;;15.17;84.50;96654.09;5029235;28;20198;-65
2021/08/03 01:46:24;;;;;;;2.53;2.33;;;;;;;15.16;84.78;96655.16;5031424;28;20237;-65
2021/08/03 01:48:51;;;;;;;1.90;1.80;;;;;;;15.08;84.84;96658.31;5030644;28;20194;-65
2021/08/03 01:51:16;;;;;;;2.83;1.90;;;;;;;15.02;84.66;96651.41;5030462;28;20195;-66
2021/08/03 01:53:44;;;;;;;2.07;1.97;;;;;;;15.02;84.38;96661.97;5030544;28;20186;-66
2021/08/03 01:56:10;;;;;;;1.80;1.70;;;;;;;14.96;84.12;96648.75;5031240;28;20218;-65
2021/08/03 01:58:39;;;;;;;1.67;1.50;;;;;;;14.91;84.48;96642.66;5030936;28;20644;-65
2021/08/03 02:01:05;;;;;;;3.40;1.97;;;;;;;15.07;83.53;96644.31;5029703;28;20303;-66
2021/08/03 02:03:33;;;;;;;1.67;1.57;;;;;;;14.82;84.80;96646.84;5030806;28;20175;-71
2021/08/03 02:05:59;;;;;;;1.70;1.60;;;;;;;14.78;84.49;96646.53;5031078;28;20640;-65
2021/08/03 02:08:26;;;;;;;3.20;1.63;;;;;;;14.78;84.62;96648.38;5031192;28;20217;-66
2021/08/03 02:10:51;;;;;;;1.70;1.60;;;;;;;15.01;83.33;96642.69;5030287;28;20194;-64
2021/08/03 02:13:17;;;;;;;3.60;2.17;;;;;;;15.08;82.63;96648.53;5030405;28;20194;-64
2021/08/03 02:15:43;;;;;;;2.13;1.70;;;;;;;14.98;83.41;96648.50;5029165;28;20186;-65
2021/08/03 02:18:08;;;;;;;2.40;2.03;;;;;;;15.08;83.33;96640.63;5031510;28;20186;-65
2021/08/03 02:20:34;;;;;;;3.03;2.10;;;;;;;14.87;84.44;96636.31;5030636;28;20236;-65
2021/08/03 02:23:00;;;;;;;2.20;2.10;;;;;;;14.83;84.46;96638.66;5030504;28;20917;-64
2021/08/03 02:25:26;;;;;;;2.73;2.30;;;;;;;14.66;86.22;96639.88;5030173;28;20494;-65
2021/08/03 02:27:53;;;;;;;2.00;1.90;;;;;;;14.82;85.23;96631.78;5030315;28;20663;-65
2021/08/03 02:30:19;;;;;;;2.17;1.97;;;;;;;15.09;83.58;96636.94;5033699;28;20600;-65
2021/08/03 02:32:51;;;;;;;4.13;2.07;;;;;;;14.82;85.02;96634.41;5034573;28;20189;-65
2021/08/03 02:35:20;;;;;;;3.80;1.80;;;;;;;14.88;84.68;96625.47;5034501;28;20171;-65
2021/08/03 02:37:51;;;;;;;3.50;1.70;;;;;;;14.97;83.66;96623.94;5033604;28;20659;-65
2021/08/03 02:40:17;;;;;;;2.40;1.90;;;;;;;14.92;84.23;96615.22;5033759;28;20258;-65
2021/08/03 02:42:44;;;;;;;2.00;1.80;;;;;;;14.89;84.17;96613.09;5033903;28;20214;-65
2021/08/03 02:45:12;;;;;;;1.93;1.60;;;;;;;14.94;84.14;96605.19;5032906;28;20703;-66
2021/08/03 02:47:49;;;;;;;2.37;1.80;;;;;;;14.96;83.92;96603.88;5034108;28;20203;-65
2021/08/03 02:50:16;;;;;;;3.17;1.63;;;;;;;14.88;84.11;96606.22;5034685;28;20632;-65
2021/08/03 02:52:44;;;;;;;3.40;2.07;;;;;;;14.89;83.77;96605.16;5033893;28;20186;-65
2021/08/03 02:55:19;;;;;;;1.90;1.80;;;;;;;14.80;84.67;96612.78;5034100;28;20720;-69
2021/08/03 02:57:50;;;;;;;2.63;1.70;;;;;;;14.78;85.13;96609.59;5034358;28;20296;-65
2021/08/03 03:00:16;;;;;;;1.90;1.80;;;;;;;14.75;84.76;96609.34;5034981;28;20179;-65
2021/08/03 03:02:44;;;;;;;1.90;1.80;;;;;;;14.72;85.01;96608.00;5033802;28;20299;-65
2021/08/03 03:05:13;;;;;;;3.83;1.77;;;;;;;14.88;84.03;96614.13;5034383;28;20546;-65
2021/08/03 03:07:47;;;;;;;2.73;1.90;;;;;;;14.75;84.80;96604.84;5032121;28;20244;-65
2021/08/03 03:10:17;;;;;;;1.80;1.70;;;;;;;14.66;85.17;96605.56;5034320;28;20193;-65
2021/08/03 03:12:51;;;;;;;1.90;1.80;;;;;;;14.74;84.63;96597.19;5033010;28;20195;-65
2021/08/03 03:15:17;;;;;;;2.93;1.70;;;;;;;14.81;83.78;96597.75;5033277;28;20703;-65
2021/08/03 03:17:45;;;;;;;1.87;1.77;;;;;;;14.66;84.28;96598.47;5033356;28;20198;-65
2021/08/03 03:20:12;;;;;;;2.30;2.07;;;;;;;14.61;84.19;96605.56;5033090;28;20205;-66
2021/08/03 03:22:42;;;;;;;1.50;1.40;;;;;;;14.52;84.34;96595.50;5032824;28;20249;-65
2021/08/03 03:25:09;;;;;;;2.77;1.40;;;;;;;14.52;83.95;96602.63;5034297;28;20182;-64
2021/08/03 03:27:36;;;;;;;2.80;1.70;;;;;;;14.75;82.27;96591.66;5031739;28;20202;-65
2021/08/03 03:30:02;;;;;;;1.90;1.80;;;;;;;14.57;82.66;96594.72;5034366;28;20198;-64
2021/08/03 03:32:31;;;;;;;1.60;1.50;;;;;;;14.65;82.44;96596.91;5033758;28;20190;-65
2021/08/03 03:34:58;;;;;;;2.60;1.50;;;;;;;14.64;82.64;96600.59;5032156;28;20655;-65
2021/08/03 03:37:30;;;;;;;6.13;1.77;;;;;;;14.59;82.67;96595.28;5034570;28;20209;-65
2021/08/03 03:39:59;;;;;;;1.53;1.40;;;;;;;14.54;82.90;96589.97;5033020;28;20683;-65
2021/08/03 03:42:32;;;;;;;1.63;1.30;;;;;;;14.59;82.88;96595.28;5033764;28;20551;-65
2021/08/03 03:44:59;;;;;;;1.33;1.30;;;;;;;14.61;82.84;96584.44;5031341;28;20217;-65
2021/08/03 03:47:31;;;;;;;2.80;1.30;;;;;;;14.50;83.44;96589.69;5033828;28;20556;-65
2021/08/03 03:50:20;;;;;;;1.70;1.40;;;;;;;14.61;82.80;96587.88;5033694;28;20235;-65
2021/08/03 03:52:53;;;;;;;1.80;1.70;;;;;;;14.53;83.40;96588.41;5016155;28;20527;-65
2021/08/03 03:55:21;;;;;;;1.80;1.70;;;;;;;14.59;83.37;96587.38;5033574;28;20194;-65
2021/08/03 03:57:48;;;;;;;1.57;1.47;;;;;;;14.84;82.20;96587.47;5032966;28;20202;-65
2021/08/03 04:00:14;;;;;;;1.60;1.50;;;;;;;14.77;82.58;96584.28;5033609;28;20193;-65
2021/08/03 04:02:42;;;;;;;2.23;1.77;;;;;;;14.67;83.52;96580.78;5032964;28;20683;-65
2021/08/03 04:05:14;;;;;;;2.00;1.80;;;;;;;14.70;83.58;96581.09;5033490;28;20240;-64
2021/08/03 04:07:40;;;;;;;3.20;1.95;;;;;;;14.52;84.70;96592.88;5031816;28;20441;-65
2021/08/03 04:10:08;;;;;;;2.78;2.30;;;;;;;14.44;85.73;96588.06;5032504;28;20559;-66
2021/08/03 04:12:34;;;;;;;1.90;1.80;;;;;;;14.68;84.66;96577.91;5033077;28;20187;-71
2021/08/03 04:15:00;;;;;;;1.80;1.70;;;;;;;14.69;84.26;96582.13;5032304;28;20255;-64
2021/08/03 04:17:25;;;;;;;2.13;2.00;;;;;;;14.76;83.99;96584.53;5033475;28;20217;-64
2021/08/03 04:19:51;;;;;;;2.47;1.90;;;;;;;14.75;84.03;96588.22;5032592;28;20261;-65
2021/08/03 04:22:16;;;;;;;2.20;2.00;;;;;;;14.85;83.61;96590.91;5033517;28;20505;-65
2021/08/03 04:24:42;;;;;;;2.10;1.90;;;;;;;14.83;83.30;96585.88;5032461;28;20179;-65
2021/08/03 04:27:07;;;;;;;1.83;1.60;;;;;;;14.87;83.41;96576.41;5032966;28;20179;-65
2021/08/03 04:29:32;;;;;;;3.80;2.23;;;;;;;14.95;83.12;96578.53;5032641;28;20199;-71
2021/08/03 04:31:58;;;;;;;2.20;2.07;;;;;;;14.86;83.42;96582.75;5032916;28;20240;-64
2021/08/03 04:34:23;;;;;;;2.00;1.80;;;;;;;14.75;84.33;96581.13;5031980;28;20187;-65
2021/08/03 04:36:49;;;;;;;3.53;1.63;;;;;;;14.74;84.30;96579.53;5032096;28;20584;-65
2021/08/03 04:39:14;;;;;;;2.10;1.90;;;;;;;14.56;85.07;96575.47;5032410;28;20248;-65
2021/08/03 04:41:40;;;;;;;1.83;1.73;;;;;;;14.56;84.86;96572.84;5031893;28;20194;-65
2021/08/03 04:44:06;;;;;;;2.10;1.90;;;;;;;14.47;85.69;96584.13;5030831;28;20218;-64
2021/08/03 04:46:31;;;;;;;1.43;1.33;;;;;;;14.63;85.02;96587.66;5032424;28;20682;-71
2021/08/03 04:48:57;;;;;;;4.43;1.50;;;;;;;14.73;84.17;96587.69;5032097;28;20198;-65
2021/08/03 04:51:22;;;;;;;2.17;1.57;;;;;;;14.90;83.11;96583.00;5030555;28;20585;-69
2021/08/03 04:53:48;;;;;;;1.70;1.60;;;;;;;14.77;83.59;96579.00;5030685;28;20187;-65
2021/08/03 04:56:13;;;;;;;1.83;1.73;;;;;;;14.96;82.71;96574.06;5031788;28;20221;-64
2021/08/03 04:58:38;;;;;;;2.33;2.13;;;;;;;15.09;82.00;96575.41;5031545;28;20218;-68
2021/08/03 05:01:04;;;;;;;5.27;1.63;;;;;;;15.06;82.16;96573.28;5032526;28;20186;-65
2021/08/03 05:03:29;;;;;;;4.20;2.07;;;;;;;15.05;82.33;96575.13;5032265;28;20691;-64
2021/08/03 05:05:55;;;;;;;1.90;1.80;;;;;;;15.16;82.15;96558.25;5031117;28;20178;-64
2021/08/03 05:08:20;;;;;;;3.50;2.00;;;;;;;15.11;82.41;96565.38;5031935;28;20217;-66
2021/08/03 05:10:45;;;;;;;1.90;1.80;;;;;;;15.25;81.52;96564.63;5031029;28;20195;-65
2021/08/03 05:13:11;;;;;;;3.13;2.83;;;;;;;15.25;81.61;96564.63;5032166;28;20218;-65
2021/08/03 05:15:36;;;;;;;2.97;1.73;;;;;;;15.30;81.31;96569.13;5031432;28;20193;-69
2021/08/03 05:18:01;;;;;;;2.23;1.60;;;;;;;15.37;81.14;96565.19;5014202;28;20218;-64
2021/08/03 05:20:27;;;;;;;2.23;2.13;;;;;;;15.53;80.30;96562.59;5014043;28;20213;-65
2021/08/03 05:22:52;;;;;;;1.73;1.60;;;;;;;15.67;79.42;96569.72;5030912;28;20190;-64
2021/08/03 05:25:18;;;;;;;1.67;1.57;;;;;;;15.64;79.32;96562.34;5031884;28;20636;-65
2021/08/03 05:27:43;;;;;;;2.17;1.80;;;;;;;15.80;78.38;96557.84;5030968;28;20202;-65
2021/08/03 05:30:09;;;;;;;2.67;1.90;;;;;;;15.68;78.83;96558.09;5031569;28;20718;-64
2021/08/03 05:32:35;;;;;;;3.87;1.63;;;;;;;15.66;79.21;96554.16;5030967;28;20236;-69
2021/08/03 05:35:01;;;;;;;4.53;2.00;;;;;;;15.62;79.61;96551.22;5029230;28;20194;-66
2021/08/03 05:37:26;;;;;;;1.87;1.70;;;;;;;15.60;79.96;96556.00;5031480;28;20187;-66
2021/08/03 05:39:51;;;;;;;6.27;2.20;;;;;;;15.59;80.15;96554.41;5029828;28;20549;-65
2021/08/03 05:42:17;;;;;;;2.40;1.90;;;;;;;15.55;80.53;96555.22;5028942;28;20655;-65
2021/08/03 05:44:42;;;;;;;6.80;2.00;;;;;;;15.59;80.93;96554.41;5030231;28;20186;-64
2021/08/03 05:47:08;;;;;;;2.00;1.77;;;;;;;15.69;80.55;96558.91;5031148;28;20691;-64
2021/08/03 05:49:33;;;;;;;2.23;2.03;;;;;;;15.84;79.70;96560.72;5031089;28;20203;-65
2021/08/03 05:52:00;;;;;;;3.03;2.83;;;;;;;15.83;80.00;96567.88;5029334;28;20261;-64
2021/08/03 05:54:26;;;;;;;6.33;2.27;;;;;;;15.66;80.47;96565.50;5031197;28;20183;-64
2021/08/03 05:56:52;;;;;;;4.27;1.90;;;;;;;15.73;80.67;96566.03;5030784;28;20179;-64
2021/08/03 05:59:17;;;;;;;2.73;2.17;;;;;;;15.74;80.43;96564.97;5031543;28;20194;-64
2021/08/03 06:01:42;;;;;;;2.60;2.23;;;;;;;15.85;80.62;96565.75;5030066;28;20305;-64
2021/08/03 06:04:08;;;;;;;2.00;1.90;;;;;;;16.01;79.64;96564.69;5030039;28;20198;-64
2021/08/03 06:06:39;;;;;;;2.33;2.20;;;;;;;16.13;79.00;96564.41;5031282;28;20189;-64
2021/08/03 06:09:08;;;;;;;4.47;2.10;;;;;;;16.05;79.42;96557.81;5031126;28;20202;-64
2021/08/03 06:11:36;;;;;;;2.30;2.10;;;;;;;16.19;79.04;96564.16;5031112;28;20193;-64
2021/08/03 06:14:03;;;;;;;2.23;2.03;;;;;;;16.38;77.81;96566.25;5028978;28;20193;-65
2021/08/03 06:16:29;;;;;;;2.40;2.20;;;;;;;16.61;77.47;96563.00;5029892;28;20214;-61
2021/08/03 06:19:02;;;;;;;2.43;1.77;;;;;;;16.75;77.04;96558.72;5030354;28;20297;-63
2021/08/03 06:21:28;;;;;;;1.63;1.50;;;;;;;16.72;76.70;96561.91;5031372;28;20513;-61
2021/08/03 06:23:55;;;;;;;1.70;1.60;;;;;;;17.01;75.55;96568.13;5012554;28;20241;-62
2021/08/03 06:26:22;;;;;;;2.20;2.00;;;;;;;17.14;74.64;96564.09;5030283;28;20954;-62
2021/08/03 06:28:50;;;;;;;2.00;1.87;;;;;;;17.29;73.33;96563.22;5029162;28;20202;-61
2021/08/03 06:31:17;;;;;;;2.07;1.70;;;;;;;17.32;73.42;96565.34;5031619;28;20185;-60
2021/08/03 06:33:46;;;;;;;3.87;1.67;;;;;;;17.48;72.56;96564.16;5029409;28;20187;-61
2021/08/03 06:36:12;;;;;;;1.70;1.60;;;;;;;17.71;71.62;96568.00;5023305;28;20182;-60
2021/08/03 06:38:37;;;;;;;1.67;1.47;;;;;;;17.92;69.57;96564.13;5029260;28;20706;-69
2021/08/03 06:41:22;;;;;;;1.60;1.37;;;;;;;18.12;69.32;96568.44;5029641;28;20218;-61
2021/08/03 06:43:54;;;;;;;2.73;1.33;;;;;;;18.54;68.17;96570.41;5028850;28;20545;-63
2021/08/03 06:46:20;;;;;;;1.90;1.33;;;;;;;18.93;66.88;96564.94;5030298;28;20177;-63
2021/08/03 06:48:50;;;;;;;1.10;1.10;;;;;;;19.25;65.76;96569.56;5028325;28;20291;-63
2021/08/03 06:51:17;;;;;;;1.83;1.27;;;;;;;19.22;65.18;96568.31;5029521;28;20666;-60
2021/08/03 06:53:47;;;;;;;1.90;1.10;;;;;;;19.28;65.03;96569.03;5029764;28;20187;-63
2021/08/03 06:56:21;;;;;;;1.40;1.17;;;;;;;20.01;61.89;96563.91;5030346;28;20277;-65
2021/08/03 06:59:07;;;;;;;3.70;1.05;;;;;;;20.53;60.32;96556.63;5025481;28;20258;-64
2021/08/03 07:01:51;;;;;;;1.13;1.08;;;;;;;20.97;58.62;96561.34;5030846;28;20202;-65
2021/08/03 07:04:34;;;;;;;1.45;1.20;;;;;;;20.74;59.07;96560.47;5029571;28;20230;-64
2021/08/03 07:07:01;;;;;;;1.80;1.23;;;;;;;20.68;58.63;96561.66;5019430;28;20571;-63
2021/08/03 07:09:30;;;;;;;1.02;1.02;;;;;;;20.55;59.11;96560.59;5030320;28;20215;-63
2021/08/03 07:11:57;;;;;;;2.00;1.20;;;;;;;20.27;59.98;96565.06;5029904;28;20194;-65
2021/08/03 07:14:24;;;;;;;1.67;1.23;;;;;;;20.11;60.96;96560.31;5030866;28;20194;-65
2021/08/03 07:16:54;;;;;;;1.95;1.08;;;;;;;20.18;61.52;96558.81;5032575;28;20187;-63
2021/08/03 07:19:21;;;;;;;5.20;1.50;;;;;;;20.55;61.19;96563.25;5034090;28;20229;-63
2021/08/03 07:21:49;;;;;;;1.15;1.05;;;;;;;20.75;61.15;96562.06;5033749;28;20182;-62
2021/08/03 07:24:15;;;;;;;1.35;0.90;;;;;;;20.90;60.95;96569.75;5033098;28;20707;-64
2021/08/03 07:26:41;;;;;;;2.30;1.10;;;;;;;21.03;58.18;96566.28;5032785;28;20659;-70
2021/08/03 07:29:06;;;;;;;1.23;0.98;;;;;;;21.04;57.21;96559.88;5033611;28;20202;-64
2021/08/03 07:31:32;;;;;;;1.40;1.13;;;;;;;21.09;57.24;96566.97;5034012;28;20194;-65
2021/08/03 07:33:57;;;;;;;0.90;0.90;;;;;;;21.38;56.79;96564.78;5033270;28;20217;-64
2021/08/03 07:36:23;;;;;;;0.95;0.95;;;;;;;21.31;56.77;96561.72;5034271;28;20191;-64
2021/08/03 07:38:54;;;;;;;1.10;1.00;;;;;;;21.24;57.66;96565.88;5032437;28;20235;-64
2021/08/03 07:41:25;;;;;;;1.10;1.10;;;;;;;20.99;57.76;96569.84;5031272;28;20191;-64
2021/08/03 07:43:51;;;;;;;1.02;1.02;;;;;;;20.81;57.04;96573.41;5031172;28;20175;-64
2021/08/03 07:46:16;;;;;;;1.05;0.93;;;;;;;20.83;57.61;96574.72;5033760;28;20693;-63
2021/08/03 07:48:42;;;;;;;1.73;1.13;;;;;;;20.48;58.39;96568.19;5033198;28;20362;-66
2021/08/03 07:51:08;;;;;;;0.90;0.90;;;;;;;20.70;57.81;96575.50;5032437;28;20201;-64
2021/08/03 07:53:35;;;;;;;1.10;0.95;;;;;;;20.71;57.82;96574.41;5033928;28;20691;-66
2021/08/03 07:56:00;;;;;;;0.90;0.90;;;;;;;21.02;57.54;96569.25;5032887;28;20318;-66
2021/08/03 07:58:25;;;;;;;0.80;0.80;;;;;;;21.29;56.95;96579.13;5033639;28;20650;-63
2021/08/03 08:00:51;;;;;;;0.80;0.80;;;;;;;21.43;56.13;96575.31;5031587;28;20193;-66
2021/08/03 08:03:16;;;;;;;1.90;1.10;;;;;;;21.72;54.98;96574.16;5033273;28;20214;-66
2021/08/03 08:05:42;;;;;;;1.10;1.00;;;;;;;22.02;54.23;96575.31;5032868;28;20554;-68
2021/08/03 08:08:07;;;;;;;0.80;0.80;;;;;;;21.93;54.28;96572.56;5033235;28;20221;-66
2021/08/03 08:10:33;;;;;;;1.00;1.00;;;;;;;21.88;54.93;96578.81;5033297;28;20645;-67
2021/08/03 08:12:58;;;;;;;1.60;1.05;;;;;;;22.03;54.46;96579.56;5033106;28;20831;-66
2021/08/03 08:15:24;;;;;;;1.77;1.00;;;;;;;22.02;53.65;96576.09;5032762;28;20201;-66
2021/08/03 08:17:49;;;;;;;0.77;0.77;;;;;;;22.03;53.25;96583.03;5032578;28;20183;-64
2021/08/03 08:20:15;;;;;;;1.27;1.02;;;;;;;22.00;54.06;96583.63;5033377;28;20698;-64
2021/08/03 08:22:42;;;;;;;1.77;0.80;;;;;;;22.19;53.68;96589.56;5024702;28;20594;-66
2021/08/03 08:25:10;;;;;;;1.38;1.05;;;;;;;22.37;53.08;96572.53;5032808;28;20202;-64
2021/08/03 08:27:40;;;;;;;0.90;0.90;;;;;;;22.42;52.85;96571.63;5031536;28;20549;-66
2021/08/03 08:30:07;;;;;;;0.98;0.98;;;;;;;22.55;53.12;96585.97;5032418;28;20225;-65
2021/08/03 08:32:35;;;;;;;1.15;0.90;;;;;;;22.43;53.16;96569.72;5033110;28;20725;-66
2021/08/03 08:35:01;;;;;;;2.33;1.15;;;;;;;22.54;52.47;96573.72;5030844;28;20269;-65
2021/08/03 08:37:27;;;;;;;0.93;0.93;;;;;;;22.58;52.89;96572.00;5032591;28;20193;-65
2021/08/03 08:39:52;;;;;;;0.88;0.80;;;;;;;22.64;53.19;96574.22;5031183;28;20698;-65
2021/08/03 08:42:17;;;;;;;1.10;0.85;;;;;;;22.85;52.51;96577.16;5019984;28;20198;-65
2021/08/03 08:44:48;;;;;;;0.80;0.80;;;;;;;22.72;52.55;96575.38;5031920;28;20186;-67
2021/08/03 08:47:15;;;;;;;1.13;1.00;;;;;;;22.60;52.85;96577.81;5033017;28;20233;-64
2021/08/03 08:49:40;;;;;;;1.23;0.95;;;;;;;22.63;52.81;96575.31;5032706;28;20190;-67
2021/08/03 08:52:07;;;;;;;2.55;1.00;;;;;;;22.53;53.66;96578.25;5030521;28;20198;-66
2021/08/03 08:54:32;;;;;;;1.67;1.13;;;;;;;22.75;53.13;96575.56;5032723;28;20328;-65
2021/08/03 08:57:00;;;;;;;0.73;0.73;;;;;;;22.90;53.03;96570.91;5031783;28;20185;-65
2021/08/03 08:59:26;;;;;;;0.98;0.90;;;;;;;22.95;52.87;96568.06;5032635;28;20193;-65
2021/08/03 09:01:51;;;;;;;1.17;0.98;;;;;;;23.20;52.72;96568.13;5031112;28;20190;-65
2021/08/03 09:04:17;;;;;;;1.20;1.10;;;;;;;23.10;52.35;96571.09;5031452;28;20218;-65
2021/08/03 09:06:42;;;;;;;0.93;0.93;;;;;;;23.28;52.42;96576.47;5031911;28;20191;-67
2021/08/03 09:09:19;;;;;;;1.02;0.90;;;;;;;23.28;52.83;96582.63;5031759;28;20223;-65
2021/08/03 09:11:47;;;;;;;0.85;0.85;;;;;;;22.94;52.90;96579.88;5031723;28;20178;-67
2021/08/03 09:14:13;;;;;;;0.90;0.90;;;;;;;22.96;52.84;96581.09;5032389;28;20202;-65
2021/08/03 09:16:47;;;;;;;1.90;0.93;;;;;;;23.06;52.30;96580.06;5030881;28;20257;-65
2021/08/03 09:19:35;;;;;;;1.45;0.93;;;;;;;23.37;51.62;96585.28;5032109;28;20222;-65
2021/08/03 09:22:21;;;;;;;1.05;0.90;;;;;;;23.47;51.26;96585.78;5029841;28;20273;-66
2021/08/03 09:24:52;;;;;;;1.10;1.10;;;;;;;23.53;51.12;96592.56;5031451;28;20237;-65
2021/08/03 09:27:30;;;;;;;0.90;0.90;;;;;;;23.30;51.79;96604.47;5031860;28;20179;-65
2021/08/03 09:29:56;;;;;;;2.83;1.00;;;;;;;22.82;52.25;96596.50;5030856;28;20183;-65
2021/08/03 09:32:28;;;;;;;1.90;1.00;;;;;;;22.60;54.25;96597.31;5031774;28;20189;-65
2021/08/03 09:35:13;;;;;;;1.30;1.00;;;;;;;22.03;58.15;96612.38;5030522;28;20234;-65
2021/08/03 09:37:41;;;;;;;3.45;1.20;;;;;;;20.77;62.82;96621.19;5031677;28;20179;-64
2021/08/03 09:40:23;;;;;;;1.05;1.05;;;;;;;19.97;67.48;96620.66;5029286;28;20230;-66
2021/08/03 09:43:01;;;;;;;1.13;1.10;;;;;;;19.44;71.74;96612.91;5030544;28;20200;-66
2021/08/03 09:45:28;;;;;;;1.00;1.00;;;;;;;19.01;73.49;96628.84;5031172;28;20186;-66
2021/08/03 09:48:11;;;;;;;1.20;1.10;;;;;;;18.44;77.68;96634.25;5030833;28;20285;-66
2021/08/03 09:51:00;;;;;;;1.95;0.90;;;;;;;17.28;80.63;96626.00;5030833;28;20210;-66
2021/08/03 09:53:48;;;;;;;1.83;1.20;;;;;;;17.53;84.15;96626.94;5030893;28;20182;-66
2021/08/03 09:56:23;;;;;;;1.48;1.10;;;;;;;17.62;82.20;96631.41;5031345;28;20232;-66
2021/08/03 09:58:55;;;;;;;0.80;0.80;;;;;;;17.63;83.21;96629.56;5030582;28;20182;-67
2021/08/03 10:01:41;;;;;;;1.03;1.03;;;;;;;17.33;85.60;96627.84;5031539;28;20186;-65
2021/08/03 10:04:11;;;;;;;1.27;1.27;;;;;;;17.18;85.19;96631.34;5029677;28;20185;-66
2021/08/03 10:06:38;;;;;;;1.42;1.23;;;;;;;16.88;87.30;96632.28;5031387;28;20631;-66
2021/08/03 10:09:05;;;;;;;1.20;1.20;;;;;;;17.03;89.63;96629.56;5030551;28;20222;-66
2021/08/03 10:11:31;;;;;;;1.80;1.10;;;;;;;17.37;89.02;96628.88;5031431;28;20187;-66
2021/08/03 10:13:57;;;;;;;2.00;1.33;;;;;;;17.38;87.81;96627.84;5030550;28;20233;-66
2021/08/03 10:16:23;;;;;;;2.27;1.20;;;;;;;16.99;89.23;96617.16;5031376;28;20201;-67
2021/08/03 10:18:52;;;;;;;1.50;1.40;;;;;;;17.43;89.16;96620.66;5030490;28;20187;-68
2021/08/03 10:21:27;;;;;;;1.40;1.30;;;;;;;17.77;87.68;96619.94;5031338;28;20194;-67
2021/08/03 10:23:56;;;;;;;1.10;1.10;;;;;;;18.02;87.10;96626.88;5029801;28;20178;-67
2021/08/03 10:26:22;;;;;;;1.00;1.00;;;;;;;18.07;85.25;96635.59;5030131;28;20178;-67
2021/08/03 10:28:47;;;;;;;1.30;1.20;;;;;;;18.27;84.19;96632.00;5030160;28;20194;-72
2021/08/03 10:31:35;;;;;;;1.50;1.40;;;;;;;18.38;83.21;96638.81;5030135;28;20186;-69
2021/08/03 10:34:00;;;;;;;2.78;2.50;;;;;;;18.53;83.79;96636.00;5029938;28;20189;-67
2021/08/03 10:36:39;;;;;;;5.22;2.50;;;;;;;17.85;82.38;96638.69;5030173;28;20182;-69
2021/08/03 10:39:18;;;;;;;2.20;1.00;;;;;;;17.84;83.21;96633.66;5019524;28;20225;-67
2021/08/03 10:41:58;;;;;;;1.00;1.00;;;;;;;17.62;82.59;96638.56;5029528;28;20236;-66
2021/08/03 10:44:57;;;;;;;1.40;1.20;;;;;;;17.86;83.71;96628.88;5027763;28;20186;-66
2021/08/03 10:47:34;;;;;;;1.43;1.33;;;;;;;17.49;81.88;96616.09;5027313;28;20225;-66
2021/08/03 10:50:03;;;;;;;2.10;1.10;;;;;;;17.84;81.85;96623.84;5028838;28;20269;-67
2021/08/03 10:55:35;;;;;;;1.48;1.40;;;;;;;19.56;74.71;96607.97;5034021;28;20228;-66
2021/08/03 10:58:09;;;;;;;1.05;1.00;;;;;;;19.31;73.41;96592.34;5022980;28;20205;-67
2021/08/03 11:00:44;;;;;;;1.25;1.10;;;;;;;19.15;76.42;96575.81;5034616;28;20236;-66
2021/08/03 11:03:34;;;;;;;1.95;1.40;;;;;;;18.93;79.82;96563.09;5033758;28;20186;-66
2021/08/03 11:06:05;;;;;;;1.45;1.30;;;;;;;18.73;81.55;96573.16;5033859;28;20627;-67
2021/08/03 11:08:34;;;;;;;1.63;1.52;;;;;;;18.86;79.96;96570.59;5034313;28;20292;-66
2021/08/03 11:11:05;;;;;;;1.20;1.20;;;;;;;18.92;80.98;96564.16;5033416;28;20218;-66
2021/08/03 11:13:40;;;;;;;1.58;1.20;;;;;;;18.47;82.35;96562.78;5001416;28;20177;-66
2021/08/03 11:16:30;;;;;;;1.50;1.35;;;;;;;18.73;82.01;96565.19;5032498;28;20525;-67
2021/08/03 11:19:01;;;;;;;1.65;1.30;;;;;;;19.05;80.16;96557.38;5034945;28;20281;-66
2021/08/03 11:21:30;;;;;;;2.03;1.27;;;;;;;19.39;79.56;96562.47;5033037;28;20170;-67
2021/08/03 11:24:06;;;;;;;2.38;1.45;;;;;;;19.26;77.57;96563.97;5033210;28;20601;-66
2021/08/03 11:26:33;;;;;;;1.33;1.33;;;;;;;19.37;78.91;96560.09;5033427;28;20562;-67
2021/08/03 11:29:08;;;;;;;1.60;1.50;;;;;;;19.38;78.43;96576.84;5033515;28;20191;-67
2021/08/03 11:31:50;;;;;;;1.40;1.30;;;;;;;19.57;79.64;96558.25;5032915;28;20182;-67
2021/08/03 11:34:31;;;;;;;2.05;1.60;;;;;;;19.95;78.43;96553.66;5033754;28;20171;-66
2021/08/03 11:37:04;;;;;;;1.95;1.60;;;;;;;20.11;76.81;96539.81;5027814;28;20175;-67
2021/08/03 11:39:35;;;;;;;2.90;1.80;;;;;;;20.41;75.62;96537.69;5031743;28;20234;-66
2021/08/03 11:42:01;;;;;;;2.13;1.85;;;;;;;20.78;75.52;96547.38;5032431;28;20198;-67
2021/08/03 11:44:27;;;;;;;1.50;1.40;;;;;;;21.04;73.46;96537.75;5033047;28;20186;-66
2021/08/03 11:46:59;;;;;;;2.45;1.92;;;;;;;21.06;74.24;96531.06;5032425;28;20651;-68
2021/08/03 11:49:30;;;;;;;2.47;1.90;;;;;;;21.34;72.77;96528.34;5033943;28;20241;-66